sensor_id;sensor_type;location;lat;lon;timestamp;temperature;humidity
15609;DHT22;64278;45.642;13.756;2023-03-03T00:01:05;21.80;54.20
15609;DHT22;64278;45.642;13.756;2023-03-03T00:03:31;21.80;54.20
15609;DHT22;64278;45.642;13.756;2023-03-03T00:05:58;21.80;54.20
15609;DHT22;64278;45.642;13.756;2023-03-03T00:08:24;21.80;54.20
15609;DHT22;64278;45.642;13.756;2023-03-03T00:10:50;21.80;54.20
15609;DHT22;64278;45.642;13.756;2023-03-03T00:13:20;21.80;54.30
15609;DHT22;64278;45.642;13.756;2023-03-03T00:15:47;21.80;54.30
15609;DHT22;64278;45.642;13.756;2023-03-03T00:18:32;21.80;54.30
15609;DHT22;64278;45.642;13.756;2023-03-03T00:21:00;21.80;54.30
15609;DHT22;64278;45.642;13.756;2023-03-03T00:25:57;21.80;54.30
15609;DHT22;64278;45.642;13.756;2023-03-03T00:30:56;21.80;54.50
15609;DHT22;64278;45.642;13.756;2023-03-03T00:33:28;21.80;54.50
15609;DHT22;64278;45.642;13.756;2023-03-03T00:38:39;21.80;54.60
15609;DHT22;64278;45.642;13.756;2023-03-03T00:41:18;21.80;54.60
15609;DHT22;64278;45.642;13.756;2023-03-03T00:43:45;21.80;54.60
15609;DHT22;64278;45.642;13.756;2023-03-03T00:46:17;21.80;54.70
15609;DHT22;64278;45.642;13.756;2023-03-03T00:48:44;21.70;54.70
15609;DHT22;64278;45.642;13.756;2023-03-03T00:53:48;21.70;54.80
15609;DHT22;64278;45.642;13.756;2023-03-03T00:56:13;21.70;54.80
15609;DHT22;64278;45.642;13.756;2023-03-03T00:58:39;21.80;54.90
15609;DHT22;64278;45.642;13.756;2023-03-03T01:01:05;21.70;54.90
15609;DHT22;64278;45.642;13.756;2023-03-03T01:03:31;21.70;54.90
15609;DHT22;64278;45.642;13.756;2023-03-03T01:05:56;21.80;54.90
15609;DHT22;64278;45.642;13.756;2023-03-03T01:08:23;21.70;54.90
15609;DHT22;64278;45.642;13.756;2023-03-03T01:10:51;21.70;54.90
15609;DHT22;64278;45.642;13.756;2023-03-03T01:13:25;21.70;54.90
15609;DHT22;64278;45.642;13.756;2023-03-03T01:15:51;21.70;55.00
15609;DHT22;64278;45.642;13.756;2023-03-03T01:18:17;21.70;55.00
15609;DHT22;64278;45.642;13.756;2023-03-03T01:20:43;21.70;55.00
15609;DHT22;64278;45.642;13.756;2023-03-03T01:23:08;21.70;55.00
15609;DHT22;64278;45.642;13.756;2023-03-03T01:25:35;21.60;55.00
15609;DHT22;64278;45.642;13.756;2023-03-03T01:28:00;21.70;55.10
15609;DHT22;64278;45.642;13.756;2023-03-03T01:30:26;21.60;55.00
15609;DHT22;64278;45.642;13.756;2023-03-03T01:32:52;21.60;55.00
15609;DHT22;64278;45.642;13.756;2023-03-03T01:35:18;21.70;55.10
15609;DHT22;64278;45.642;13.756;2023-03-03T01:37:44;21.60;55.10
15609;DHT22;64278;45.642;13.756;2023-03-03T01:40:20;21.60;55.10
15609;DHT22;64278;45.642;13.756;2023-03-03T01:42:46;21.60;55.10
15609;DHT22;64278;45.642;13.756;2023-03-03T01:45:23;21.60;55.10
15609;DHT22;64278;45.642;13.756;2023-03-03T01:47:55;21.60;55.10
15609;DHT22;64278;45.642;13.756;2023-03-03T01:52:53;21.60;55.10
15609;DHT22;64278;45.642;13.756;2023-03-03T01:55:22;21.60;55.10
15609;DHT22;64278;45.642;13.756;2023-03-03T01:58:01;21.50;55.00
15609;DHT22;64278;45.642;13.756;2023-03-03T02:00:29;21.60;55.00
15609;DHT22;64278;45.642;13.756;2023-03-03T02:02:56;21.60;55.00
15609;DHT22;64278;45.642;13.756;2023-03-03T02:05:23;21.60;55.00
15609;DHT22;64278;45.642;13.756;2023-03-03T02:07:49;21.50;54.90
15609;DHT22;64278;45.642;13.756;2023-03-03T02:10:17;21.50;55.00
15609;DHT22;64278;45.642;13.756;2023-03-03T02:12:56;21.50;55.00
15609;DHT22;64278;45.642;13.756;2023-03-03T02:15:23;21.50;55.00
15609;DHT22;64278;45.642;13.756;2023-03-03T02:17:55;21.50;54.90
15609;DHT22;64278;45.642;13.756;2023-03-03T02:23:18;21.50;54.90
15609;DHT22;64278;45.642;13.756;2023-03-03T02:28:23;21.50;54.90
15609;DHT22;64278;45.642;13.756;2023-03-03T02:30:49;21.50;54.90
15609;DHT22;64278;45.642;13.756;2023-03-03T02:33:15;21.50;54.90
15609;DHT22;64278;45.642;13.756;2023-03-03T02:35:41;21.50;54.90
15609;DHT22;64278;45.642;13.756;2023-03-03T02:40:46;21.50;54.90
15609;DHT22;64278;45.642;13.756;2023-03-03T02:43:15;21.50;55.00
15609;DHT22;64278;45.642;13.756;2023-03-03T02:45:44;21.50;55.00
15609;DHT22;64278;45.642;13.756;2023-03-03T02:48:10;21.40;54.90
15609;DHT22;64278;45.642;13.756;2023-03-03T02:50:36;21.40;54.80
15609;DHT22;64278;45.642;13.756;2023-03-03T02:53:02;21.40;54.80
15609;DHT22;64278;45.642;13.756;2023-03-03T02:55:28;21.40;54.90
15609;DHT22;64278;45.642;13.756;2023-03-03T02:57:54;21.40;54.90
15609;DHT22;64278;45.642;13.756;2023-03-03T03:00:19;21.40;54.90
15609;DHT22;64278;45.642;13.756;2023-03-03T03:02:45;21.40;54.90
15609;DHT22;64278;45.642;13.756;2023-03-03T03:05:11;21.40;54.90
15609;DHT22;64278;45.642;13.756;2023-03-03T03:07:37;21.40;54.90
15609;DHT22;64278;45.642;13.756;2023-03-03T03:10:03;21.40;54.90
15609;DHT22;64278;45.642;13.756;2023-03-03T03:12:28;21.40;55.00
15609;DHT22;64278;45.642;13.756;2023-03-03T03:14:54;21.40;54.90
15609;DHT22;64278;45.642;13.756;2023-03-03T03:17:19;21.40;54.90
15609;DHT22;64278;45.642;13.756;2023-03-03T03:19:45;21.40;55.00
15609;DHT22;64278;45.642;13.756;2023-03-03T03:22:11;21.40;55.00
15609;DHT22;64278;45.642;13.756;2023-03-03T03:24:36;21.40;55.00
15609;DHT22;64278;45.642;13.756;2023-03-03T03:27:02;21.40;55.00
15609;DHT22;64278;45.642;13.756;2023-03-03T03:29:28;21.40;55.00
15609;DHT22;64278;45.642;13.756;2023-03-03T03:31:53;21.30;55.00
15609;DHT22;64278;45.642;13.756;2023-03-03T03:34:19;21.30;55.00
15609;DHT22;64278;45.642;13.756;2023-03-03T03:36:44;21.30;55.00
15609;DHT22;64278;45.642;13.756;2023-03-03T03:39:11;21.30;55.10
15609;DHT22;64278;45.642;13.756;2023-03-03T03:41:37;21.30;55.10
15609;DHT22;64278;45.642;13.756;2023-03-03T03:44:02;21.30;55.10
15609;DHT22;64278;45.642;13.756;2023-03-03T03:46:28;21.30;55.20
15609;DHT22;64278;45.642;13.756;2023-03-03T03:48:54;21.30;55.20
15609;DHT22;64278;45.642;13.756;2023-03-03T03:51:19;21.30;55.20
15609;DHT22;64278;45.642;13.756;2023-03-03T03:53:45;21.30;55.20
15609;DHT22;64278;45.642;13.756;2023-03-03T03:56:11;21.30;55.20
15609;DHT22;64278;45.642;13.756;2023-03-03T03:58:36;21.30;55.20
15609;DHT22;64278;45.642;13.756;2023-03-03T04:01:04;21.30;55.30
15609;DHT22;64278;45.642;13.756;2023-03-03T04:03:30;21.30;55.30
15609;DHT22;64278;45.642;13.756;2023-03-03T04:05:55;21.30;55.30
15609;DHT22;64278;45.642;13.756;2023-03-03T04:08:21;21.20;55.20
15609;DHT22;64278;45.642;13.756;2023-03-03T04:10:47;21.30;55.20
15609;DHT22;64278;45.642;13.756;2023-03-03T04:13:12;21.20;55.20
15609;DHT22;64278;45.642;13.756;2023-03-03T04:15:38;21.20;55.20
15609;DHT22;64278;45.642;13.756;2023-03-03T04:18:04;21.20;55.20
15609;DHT22;64278;45.642;13.756;2023-03-03T04:20:30;21.20;55.20
15609;DHT22;64278;45.642;13.756;2023-03-03T04:22:56;21.20;55.10
15609;DHT22;64278;45.642;13.756;2023-03-03T04:25:22;21.20;55.20
15609;DHT22;64278;45.642;13.756;2023-03-03T04:27:48;21.20;55.20
15609;DHT22;64278;45.642;13.756;2023-03-03T04:30:15;21.20;55.20
15609;DHT22;64278;45.642;13.756;2023-03-03T04:32:41;21.20;55.20
15609;DHT22;64278;45.642;13.756;2023-03-03T04:35:07;21.20;55.20
15609;DHT22;64278;45.642;13.756;2023-03-03T04:37:33;21.20;55.20
15609;DHT22;64278;45.642;13.756;2023-03-03T04:39:59;21.20;55.20
15609;DHT22;64278;45.642;13.756;2023-03-03T04:42:25;21.20;55.20
15609;DHT22;64278;45.642;13.756;2023-03-03T04:44:52;21.20;55.20
15609;DHT22;64278;45.642;13.756;2023-03-03T04:47:18;21.20;55.30
15609;DHT22;64278;45.642;13.756;2023-03-03T04:49:43;21.20;55.20
15609;DHT22;64278;45.642;13.756;2023-03-03T04:52:09;21.10;55.20
15609;DHT22;64278;45.642;13.756;2023-03-03T04:54:35;21.10;55.20
15609;DHT22;64278;45.642;13.756;2023-03-03T04:57:00;21.10;55.10
15609;DHT22;64278;45.642;13.756;2023-03-03T04:59:26;21.10;55.10
15609;DHT22;64278;45.642;13.756;2023-03-03T05:01:52;21.10;55.20
15609;DHT22;64278;45.642;13.756;2023-03-03T05:04:17;21.10;55.20
15609;DHT22;64278;45.642;13.756;2023-03-03T05:06:43;21.10;55.20
15609;DHT22;64278;45.642;13.756;2023-03-03T05:09:09;21.10;55.20
15609;DHT22;64278;45.642;13.756;2023-03-03T05:11:34;21.10;55.20
15609;DHT22;64278;45.642;13.756;2023-03-03T05:14:00;21.10;55.20
15609;DHT22;64278;45.642;13.756;2023-03-03T05:16:27;21.10;55.10
15609;DHT22;64278;45.642;13.756;2023-03-03T05:18:53;21.10;55.00
15609;DHT22;64278;45.642;13.756;2023-03-03T05:21:19;21.10;55.00
15609;DHT22;64278;45.642;13.756;2023-03-03T05:23:44;21.10;55.00
15609;DHT22;64278;45.642;13.756;2023-03-03T05:26:10;21.10;54.90
15609;DHT22;64278;45.642;13.756;2023-03-03T05:28:35;21.10;54.90
15609;DHT22;64278;45.642;13.756;2023-03-03T05:31:01;21.10;54.90
15609;DHT22;64278;45.642;13.756;2023-03-03T05:33:27;21.10;54.90
15609;DHT22;64278;45.642;13.756;2023-03-03T05:35:56;21.00;54.80
15609;DHT22;64278;45.642;13.756;2023-03-03T05:38:23;21.00;54.80
15609;DHT22;64278;45.642;13.756;2023-03-03T05:40:49;21.00;54.70
15609;DHT22;64278;45.642;13.756;2023-03-03T05:43:15;21.00;54.80
15609;DHT22;64278;45.642;13.756;2023-03-03T05:45:40;21.00;54.80
15609;DHT22;64278;45.642;13.756;2023-03-03T05:48:06;21.00;54.70
15609;DHT22;64278;45.642;13.756;2023-03-03T05:50:32;21.00;54.70
15609;DHT22;64278;45.642;13.756;2023-03-03T05:52:59;21.00;54.70
15609;DHT22;64278;45.642;13.756;2023-03-03T05:55:25;21.00;55.40
15609;DHT22;64278;45.642;13.756;2023-03-03T05:57:50;21.00;54.70
15609;DHT22;64278;45.642;13.756;2023-03-03T06:00:16;21.00;54.70
15609;DHT22;64278;45.642;13.756;2023-03-03T06:02:43;21.00;54.70
15609;DHT22;64278;45.642;13.756;2023-03-03T06:05:09;21.00;54.30
15609;DHT22;64278;45.642;13.756;2023-03-03T06:07:36;21.00;51.90
15609;DHT22;64278;45.642;13.756;2023-03-03T06:10:03;20.90;51.10
15609;DHT22;64278;45.642;13.756;2023-03-03T06:12:29;20.90;50.00
15609;DHT22;64278;45.642;13.756;2023-03-03T06:14:54;20.90;50.70
15609;DHT22;64278;45.642;13.756;2023-03-03T06:17:20;20.90;50.90
15609;DHT22;64278;45.642;13.756;2023-03-03T06:19:45;20.90;51.30
15609;DHT22;64278;45.642;13.756;2023-03-03T06:22:12;21.00;51.30
15609;DHT22;64278;45.642;13.756;2023-03-03T06:24:38;21.00;51.70
15609;DHT22;64278;45.642;13.756;2023-03-03T06:27:04;21.00;51.00
15609;DHT22;64278;45.642;13.756;2023-03-03T06:29:30;21.10;50.90
15609;DHT22;64278;45.642;13.756;2023-03-03T06:31:56;21.10;50.70
15609;DHT22;64278;45.642;13.756;2023-03-03T06:34:22;21.20;50.80
15609;DHT22;64278;45.642;13.756;2023-03-03T06:36:48;21.20;50.80
15609;DHT22;64278;45.642;13.756;2023-03-03T06:39:14;21.30;51.50
15609;DHT22;64278;45.642;13.756;2023-03-03T06:41:39;21.30;50.90
15609;DHT22;64278;45.642;13.756;2023-03-03T06:44:05;21.30;50.90
15609;DHT22;64278;45.642;13.756;2023-03-03T06:46:31;21.30;50.90
15609;DHT22;64278;45.642;13.756;2023-03-03T06:48:57;21.40;51.00
15609;DHT22;64278;45.642;13.756;2023-03-03T06:51:30;21.40;51.10
15609;DHT22;64278;45.642;13.756;2023-03-03T06:54:00;21.40;51.10
15609;DHT22;64278;45.642;13.756;2023-03-03T06:56:27;21.40;51.10
15609;DHT22;64278;45.642;13.756;2023-03-03T06:58:55;21.40;51.10
15609;DHT22;64278;45.642;13.756;2023-03-03T07:01:21;21.40;51.20
15609;DHT22;64278;45.642;13.756;2023-03-03T07:03:46;21.50;51.30
15609;DHT22;64278;45.642;13.756;2023-03-03T07:06:24;21.50;51.30
15609;DHT22;64278;45.642;13.756;2023-03-03T07:08:51;21.50;51.30
15609;DHT22;64278;45.642;13.756;2023-03-03T07:11:19;21.50;51.30
15609;DHT22;64278;45.642;13.756;2023-03-03T07:13:50;21.50;51.30
15609;DHT22;64278;45.642;13.756;2023-03-03T07:16:18;21.50;51.40
15609;DHT22;64278;45.642;13.756;2023-03-03T07:18:59;21.60;51.40
15609;DHT22;64278;45.642;13.756;2023-03-03T07:21:36;21.50;51.40
15609;DHT22;64278;45.642;13.756;2023-03-03T07:24:24;21.60;51.50
15609;DHT22;64278;45.642;13.756;2023-03-03T07:26:52;21.60;51.40
15609;DHT22;64278;45.642;13.756;2023-03-03T07:29:26;21.60;51.40
15609;DHT22;64278;45.642;13.756;2023-03-03T07:31:54;21.60;51.40
15609;DHT22;64278;45.642;13.756;2023-03-03T07:34:23;21.60;51.40
15609;DHT22;64278;45.642;13.756;2023-03-03T07:37:00;21.60;51.40
15609;DHT22;64278;45.642;13.756;2023-03-03T07:39:37;21.70;51.40
15609;DHT22;64278;45.642;13.756;2023-03-03T07:42:37;21.60;51.40
15609;DHT22;64278;45.642;13.756;2023-03-03T07:45:33;21.70;51.40
15609;DHT22;64278;45.642;13.756;2023-03-03T07:48:23;21.70;51.50
15609;DHT22;64278;45.642;13.756;2023-03-03T07:50:49;21.80;51.40
15609;DHT22;64278;45.642;13.756;2023-03-03T07:53:28;21.70;51.40
15609;DHT22;64278;45.642;13.756;2023-03-03T07:55:54;21.80;51.50
15609;DHT22;64278;45.642;13.756;2023-03-03T07:58:33;21.80;51.50
15609;DHT22;64278;45.642;13.756;2023-03-03T08:03:46;21.80;51.50
15609;DHT22;64278;45.642;13.756;2023-03-03T08:06:56;21.80;51.40
15609;DHT22;64278;45.642;13.756;2023-03-03T08:09:47;21.90;51.40
15609;DHT22;64278;45.642;13.756;2023-03-03T08:12:40;21.90;51.20
15609;DHT22;64278;45.642;13.756;2023-03-03T08:15:22;21.90;51.20
15609;DHT22;64278;45.642;13.756;2023-03-03T08:17:50;21.90;51.10
15609;DHT22;64278;45.642;13.756;2023-03-03T08:22:53;21.90;51.30
15609;DHT22;64278;45.642;13.756;2023-03-03T08:25:19;21.90;51.30
15609;DHT22;64278;45.642;13.756;2023-03-03T08:27:45;21.90;51.40
15609;DHT22;64278;45.642;13.756;2023-03-03T08:30:11;21.80;51.10
15609;DHT22;64278;45.642;13.756;2023-03-03T08:32:37;21.80;51.10
15609;DHT22;64278;45.642;13.756;2023-03-03T08:35:02;21.80;51.20
15609;DHT22;64278;45.642;13.756;2023-03-03T08:37:28;21.80;51.10
15609;DHT22;64278;45.642;13.756;2023-03-03T08:39:54;21.80;50.90
15609;DHT22;64278;45.642;13.756;2023-03-03T08:42:19;21.80;50.90
15609;DHT22;64278;45.642;13.756;2023-03-03T08:44:45;21.90;50.90
15609;DHT22;64278;45.642;13.756;2023-03-03T08:47:11;21.90;50.80
15609;DHT22;64278;45.642;13.756;2023-03-03T08:49:36;21.90;50.80
15609;DHT22;64278;45.642;13.756;2023-03-03T08:52:02;21.80;50.70
15609;DHT22;64278;45.642;13.756;2023-03-03T08:54:28;21.80;50.70
15609;DHT22;64278;45.642;13.756;2023-03-03T08:56:54;21.90;50.70
15609;DHT22;64278;45.642;13.756;2023-03-03T08:59:20;21.90;51.00
15609;DHT22;64278;45.642;13.756;2023-03-03T09:01:46;21.90;51.60
15609;DHT22;64278;45.642;13.756;2023-03-03T09:04:12;21.90;52.00
15609;DHT22;64278;45.642;13.756;2023-03-03T09:06:37;21.90;52.50
15609;DHT22;64278;45.642;13.756;2023-03-03T09:09:03;21.90;52.80
15609;DHT22;64278;45.642;13.756;2023-03-03T09:11:29;21.90;53.10
15609;DHT22;64278;45.642;13.756;2023-03-03T09:14:05;21.90;53.40
15609;DHT22;64278;45.642;13.756;2023-03-03T09:16:40;21.90;53.70
15609;DHT22;64278;45.642;13.756;2023-03-03T09:19:30;21.90;54.40
15609;DHT22;64278;45.642;13.756;2023-03-03T09:22:02;22.00;54.00
15609;DHT22;64278;45.642;13.756;2023-03-03T09:24:36;21.90;54.10
15609;DHT22;64278;45.642;13.756;2023-03-03T09:27:01;22.00;54.10
15609;DHT22;64278;45.642;13.756;2023-03-03T09:29:36;21.90;54.20
15609;DHT22;64278;45.642;13.756;2023-03-03T09:32:23;21.90;54.10
15609;DHT22;64278;45.642;13.756;2023-03-03T09:34:51;21.90;54.00
15609;DHT22;64278;45.642;13.756;2023-03-03T09:37:21;21.90;54.00
15609;DHT22;64278;45.642;13.756;2023-03-03T09:39:52;21.90;53.90
15609;DHT22;64278;45.642;13.756;2023-03-03T09:45:25;21.90;53.80
15609;DHT22;64278;45.642;13.756;2023-03-03T10:04:15;21.80;53.30
15609;DHT22;64278;45.642;13.756;2023-03-03T10:12:35;21.80;53.30
15609;DHT22;64278;45.642;13.756;2023-03-03T10:17:52;21.80;53.30
15609;DHT22;64278;45.642;13.756;2023-03-03T10:23:19;21.70;53.00
15609;DHT22;64278;45.642;13.756;2023-03-03T10:26:41;21.80;53.00
15609;DHT22;64278;45.642;13.756;2023-03-03T10:29:24;21.80;52.90
15609;DHT22;64278;45.642;13.756;2023-03-03T10:43:48;21.70;52.50
15609;DHT22;64278;45.642;13.756;2023-03-03T10:57:09;21.70;52.30
15609;DHT22;64278;45.642;13.756;2023-03-03T11:07:47;21.60;52.30
15609;DHT22;64278;45.642;13.756;2023-03-03T11:10:20;21.60;52.40
15609;DHT22;64278;45.642;13.756;2023-03-03T11:13:07;21.60;52.50
15609;DHT22;64278;45.642;13.756;2023-03-03T11:23:57;21.60;52.40
15609;DHT22;64278;45.642;13.756;2023-03-03T11:32:28;21.60;52.30
15609;DHT22;64278;45.642;13.756;2023-03-03T11:35:12;21.50;52.30
15609;DHT22;64278;45.642;13.756;2023-03-03T11:40:29;21.60;52.10
15609;DHT22;64278;45.642;13.756;2023-03-03T11:43:16;21.60;52.10
15609;DHT22;64278;45.642;13.756;2023-03-03T11:45:46;21.60;52.10
15609;DHT22;64278;45.642;13.756;2023-03-03T11:51:10;21.50;51.90
15609;DHT22;64278;45.642;13.756;2023-03-03T11:56:41;21.50;51.80
15609;DHT22;64278;45.642;13.756;2023-03-03T12:02:13;21.50;51.70
15609;DHT22;64278;45.642;13.756;2023-03-03T12:04:46;21.50;51.70
15609;DHT22;64278;45.642;13.756;2023-03-03T12:10:17;21.50;51.60
15609;DHT22;64278;45.642;13.756;2023-03-03T12:13:02;21.50;51.50
15609;DHT22;64278;45.642;13.756;2023-03-03T12:21:06;21.50;51.40
15609;DHT22;64278;45.642;13.756;2023-03-03T12:34:41;21.40;51.20
15609;DHT22;64278;45.642;13.756;2023-03-03T12:37:39;21.40;51.20
15609;DHT22;64278;45.642;13.756;2023-03-03T12:40:18;21.40;51.20
15609;DHT22;64278;45.642;13.756;2023-03-03T12:50:37;21.40;51.10
15609;DHT22;64278;45.642;13.756;2023-03-03T12:53:27;21.40;51.10
15609;DHT22;64278;45.642;13.756;2023-03-03T12:56:07;21.40;51.00
15609;DHT22;64278;45.642;13.756;2023-03-03T12:58:48;21.40;51.00
15609;DHT22;64278;45.642;13.756;2023-03-03T13:04:30;21.40;51.00
15609;DHT22;64278;45.642;13.756;2023-03-03T13:07:04;21.40;51.00
15609;DHT22;64278;45.642;13.756;2023-03-03T13:09:53;21.40;51.00
15609;DHT22;64278;45.642;13.756;2023-03-03T13:20:48;21.30;50.80
15609;DHT22;64278;45.642;13.756;2023-03-03T13:23:28;21.30;50.70
15609;DHT22;64278;45.642;13.756;2023-03-03T13:26:09;21.30;50.80
15609;DHT22;64278;45.642;13.756;2023-03-03T13:28:46;21.30;50.70
15609;DHT22;64278;45.642;13.756;2023-03-03T13:31:25;21.30;50.70
15609;DHT22;64278;45.642;13.756;2023-03-03T13:33:53;21.30;50.80
15609;DHT22;64278;45.642;13.756;2023-03-03T13:36:19;21.30;50.90
15609;DHT22;64278;45.642;13.756;2023-03-03T13:38:50;21.30;50.90
15609;DHT22;64278;45.642;13.756;2023-03-03T13:41:44;21.30;50.90
15609;DHT22;64278;45.642;13.756;2023-03-03T13:44:34;21.30;51.00
15609;DHT22;64278;45.642;13.756;2023-03-03T13:47:15;21.30;51.10
15609;DHT22;64278;45.642;13.756;2023-03-03T13:52:23;21.30;51.30
15609;DHT22;64278;45.642;13.756;2023-03-03T13:57:59;21.30;51.50
15609;DHT22;64278;45.642;13.756;2023-03-03T14:03:34;21.30;51.70
15609;DHT22;64278;45.642;13.756;2023-03-03T14:12:15;21.30;51.70
15609;DHT22;64278;45.642;13.756;2023-03-03T14:22:44;21.30;51.70
15609;DHT22;64278;45.642;13.756;2023-03-03T14:25:13;21.30;51.60
15609;DHT22;64278;45.642;13.756;2023-03-03T14:28:07;21.30;51.70
15609;DHT22;64278;45.642;13.756;2023-03-03T14:30:39;21.30;51.70
15609;DHT22;64278;45.642;13.756;2023-03-03T14:35:35;21.20;51.70
15609;DHT22;64278;45.642;13.756;2023-03-03T14:40:35;21.20;51.70
15609;DHT22;64278;45.642;13.756;2023-03-03T14:43:05;21.20;51.70
15609;DHT22;64278;45.642;13.756;2023-03-03T14:45:43;21.20;51.70
15609;DHT22;64278;45.642;13.756;2023-03-03T14:48:19;21.20;51.70
15609;DHT22;64278;45.642;13.756;2023-03-03T14:50:55;21.20;51.60
15609;DHT22;64278;45.642;13.756;2023-03-03T14:53:41;21.20;51.60
15609;DHT22;64278;45.642;13.756;2023-03-03T14:56:35;21.20;51.60
15609;DHT22;64278;45.642;13.756;2023-03-03T14:59:20;21.20;51.70
15609;DHT22;64278;45.642;13.756;2023-03-03T15:02:09;21.20;51.60
15609;DHT22;64278;45.642;13.756;2023-03-03T15:04:46;21.20;51.70
15609;DHT22;64278;45.642;13.756;2023-03-03T15:07:36;21.20;51.60
15609;DHT22;64278;45.642;13.756;2023-03-03T15:10:03;21.20;51.70
15609;DHT22;64278;45.642;13.756;2023-03-03T15:22:50;21.20;51.50
15609;DHT22;64278;45.642;13.756;2023-03-03T15:28:25;21.20;51.40
15609;DHT22;64278;45.642;13.756;2023-03-03T15:31:15;21.20;52.10
15609;DHT22;64278;45.642;13.756;2023-03-03T15:36:42;21.10;51.40
15609;DHT22;64278;45.642;13.756;2023-03-03T15:42:06;21.10;51.40
15609;DHT22;64278;45.642;13.756;2023-03-03T15:53:06;21.10;51.40
15609;DHT22;64278;45.642;13.756;2023-03-03T15:55:50;21.10;51.40
15609;DHT22;64278;45.642;13.756;2023-03-03T15:58:42;21.10;51.40
15609;DHT22;64278;45.642;13.756;2023-03-03T16:04:00;21.10;51.50
15609;DHT22;64278;45.642;13.756;2023-03-03T16:06:40;21.10;51.50
15609;DHT22;64278;45.642;13.756;2023-03-03T16:23:12;21.10;51.60
15609;DHT22;64278;45.642;13.756;2023-03-03T16:36:35;21.00;51.50
15609;DHT22;64278;45.642;13.756;2023-03-03T16:39:12;21.00;51.60
15609;DHT22;64278;45.642;13.756;2023-03-03T16:41:54;21.10;51.60
15609;DHT22;64278;45.642;13.756;2023-03-03T16:50:09;21.00;51.60
15609;DHT22;64278;45.642;13.756;2023-03-03T16:52:48;21.00;51.60
15609;DHT22;64278;45.642;13.756;2023-03-03T17:00:50;21.00;51.60
15609;DHT22;64278;45.642;13.756;2023-03-03T17:03:50;21.00;51.60
15609;DHT22;64278;45.642;13.756;2023-03-03T17:06:32;21.00;51.70
15609;DHT22;64278;45.642;13.756;2023-03-03T17:11:59;21.00;51.70
15609;DHT22;64278;45.642;13.756;2023-03-03T17:23:16;21.10;51.70
15609;DHT22;64278;45.642;13.756;2023-03-03T17:31:45;21.10;51.70
15609;DHT22;64278;45.642;13.756;2023-03-03T17:34:31;21.10;51.70
15609;DHT22;64278;45.642;13.756;2023-03-03T17:37:04;21.10;51.70
15609;DHT22;64278;45.642;13.756;2023-03-03T17:40:31;21.10;51.70
15609;DHT22;64278;45.642;13.756;2023-03-03T17:56:15;21.10;51.50
15609;DHT22;64278;45.642;13.756;2023-03-03T17:59:04;21.10;51.40
15609;DHT22;64278;45.642;13.756;2023-03-03T18:07:44;21.10;51.60
15609;DHT22;64278;45.642;13.756;2023-03-03T18:16:11;21.10;51.60
15609;DHT22;64278;45.642;13.756;2023-03-03T18:21:57;21.10;51.60
15609;DHT22;64278;45.642;13.756;2023-03-03T18:24:52;21.10;51.60
15609;DHT22;64278;45.642;13.756;2023-03-03T18:35:38;21.40;51.20
15609;DHT22;64278;45.642;13.756;2023-03-03T18:41:03;21.50;51.20
15609;DHT22;64278;45.642;13.756;2023-03-03T18:54:24;21.70;51.70
15609;DHT22;64278;45.642;13.756;2023-03-03T19:04:43;21.80;53.30
15609;DHT22;64278;45.642;13.756;2023-03-03T19:07:26;21.80;53.60
15609;DHT22;64278;45.642;13.756;2023-03-03T19:12:50;21.90;54.00
15609;DHT22;64278;45.642;13.756;2023-03-03T19:17:58;21.90;54.20
15609;DHT22;64278;45.642;13.756;2023-03-03T19:20:25;22.00;54.20
15609;DHT22;64278;45.642;13.756;2023-03-03T19:24:23;22.00;54.10
15609;DHT22;64278;45.642;13.756;2023-03-03T19:37:38;22.00;53.90
15609;DHT22;64278;45.642;13.756;2023-03-03T19:40:30;22.00;54.00
15609;DHT22;64278;45.642;13.756;2023-03-03T19:56:23;22.00;54.00
15609;DHT22;64278;45.642;13.756;2023-03-03T19:59:02;22.00;53.90
15609;DHT22;64278;45.642;13.756;2023-03-03T20:02:00;22.10;53.90
15609;DHT22;64278;45.642;13.756;2023-03-03T20:10:34;22.10;53.80
15609;DHT22;64278;45.642;13.756;2023-03-03T20:13:40;22.10;53.80
15609;DHT22;64278;45.642;13.756;2023-03-03T20:18:52;22.10;53.70
15609;DHT22;64278;45.642;13.756;2023-03-03T20:27:08;22.10;53.50
15609;DHT22;64278;45.642;13.756;2023-03-03T20:40:25;22.20;53.30
15609;DHT22;64278;45.642;13.756;2023-03-03T20:46:26;22.20;53.10
15609;DHT22;64278;45.642;13.756;2023-03-03T20:56:59;22.20;52.80
15609;DHT22;64278;45.642;13.756;2023-03-03T21:07:33;22.20;52.40
15609;DHT22;64278;45.642;13.756;2023-03-03T21:10:17;22.30;52.40
15609;DHT22;64278;45.642;13.756;2023-03-03T21:12:49;22.30;52.40
15609;DHT22;64278;45.642;13.756;2023-03-03T21:15:24;22.30;52.40
15609;DHT22;64278;45.642;13.756;2023-03-03T21:17:50;22.30;52.30
15609;DHT22;64278;45.642;13.756;2023-03-03T21:20:31;22.30;52.30
15609;DHT22;64278;45.642;13.756;2023-03-03T21:22:58;22.30;52.20
15609;DHT22;64278;45.642;13.756;2023-03-03T21:31:06;22.30;52.20
15609;DHT22;64278;45.642;13.756;2023-03-03T21:33:55;22.30;52.10
15609;DHT22;64278;45.642;13.756;2023-03-03T21:36:43;22.40;52.10
15609;DHT22;64278;45.642;13.756;2023-03-03T21:39:31;22.30;52.00
15609;DHT22;64278;45.642;13.756;2023-03-03T21:42:09;22.40;52.00
15609;DHT22;64278;45.642;13.756;2023-03-03T21:47:04;22.40;52.00
15609;DHT22;64278;45.642;13.756;2023-03-03T21:49:30;22.40;51.90
15609;DHT22;64278;45.642;13.756;2023-03-03T21:51:56;22.40;51.90
15609;DHT22;64278;45.642;13.756;2023-03-03T21:54:23;22.40;51.80
15609;DHT22;64278;45.642;13.756;2023-03-03T21:56:49;22.40;51.80
15609;DHT22;64278;45.642;13.756;2023-03-03T21:59:16;22.40;51.80
15609;DHT22;64278;45.642;13.756;2023-03-03T22:01:42;22.40;51.70
15609;DHT22;64278;45.642;13.756;2023-03-03T22:04:07;22.40;51.70
15609;DHT22;64278;45.642;13.756;2023-03-03T22:06:34;22.40;51.70
15609;DHT22;64278;45.642;13.756;2023-03-03T22:09:00;22.40;52.30
15609;DHT22;64278;45.642;13.756;2023-03-03T22:11:25;22.40;51.60
15609;DHT22;64278;45.642;13.756;2023-03-03T22:13:51;22.40;51.50
15609;DHT22;64278;45.642;13.756;2023-03-03T22:16:17;22.40;51.50
15609;DHT22;64278;45.642;13.756;2023-03-03T22:18:42;22.40;51.50
15609;DHT22;64278;45.642;13.756;2023-03-03T22:21:08;22.40;51.50
15609;DHT22;64278;45.642;13.756;2023-03-03T22:23:34;22.50;51.40
15609;DHT22;64278;45.642;13.756;2023-03-03T22:26:00;22.50;51.40
15609;DHT22;64278;45.642;13.756;2023-03-03T22:28:27;22.40;51.40